createdAt,value
2023-06-08T00:00:41.082Z,15.68
2023-06-08T00:01:45.215Z,16.23
2023-06-08T00:02:48.300Z,17.35
2023-06-08T00:03:50.787Z,14.68
2023-06-08T00:04:54.075Z,16.48
2023-06-08T00:05:58.803Z,18.10
2023-06-08T00:07:04.706Z,16.35
2023-06-08T00:08:10.267Z,17.92
2023-06-08T00:09:13.289Z,20.08
2023-06-08T00:10:16.590Z,42.67
2023-06-08T00:11:19.433Z,16.52
2023-06-08T00:12:22.116Z,18.08
2023-06-08T00:13:24.959Z,16.10
2023-06-08T00:14:27.254Z,14.60
2023-06-08T00:15:30.096Z,16.02
2023-06-08T00:16:33.927Z,13.32
2023-06-08T00:17:36.913Z,15.40
2023-06-08T00:18:40.398Z,13.70
2023-06-08T00:19:44.370Z,13.70
2023-06-08T00:20:47.712Z,11.93
2023-06-08T00:21:50.515Z,12.25
2023-06-08T00:22:53.069Z,12.30
2023-06-08T00:23:55.970Z,13.93
2023-06-08T00:24:57.781Z,12.88
2023-06-08T00:26:02.955Z,12.98
2023-06-08T00:27:06.826Z,13.43
2023-06-08T00:28:09.816Z,28.38
2023-06-08T00:29:11.682Z,9.65
2023-06-08T00:30:16.942Z,9.20
2023-06-08T00:31:20.481Z,9.55
2023-06-08T00:32:23.679Z,9.38
2023-06-08T00:33:25.583Z,9.57
2023-06-08T00:34:28.960Z,7.97
2023-06-08T00:35:31.076Z,9.43
2023-06-08T00:36:34.014Z,8.70
2023-06-08T00:37:37.044Z,8.43
2023-06-08T00:38:39.877Z,9.57
2023-06-08T00:39:41.774Z,7.75
2023-06-08T00:40:45.519Z,8.40
2023-06-08T00:41:48.866Z,11.30
2023-06-08T00:42:51.763Z,10.60
2023-06-08T00:43:53.639Z,8.13
2023-06-08T00:44:56.430Z,9.00
2023-06-08T00:45:58.488Z,9.15
2023-06-08T00:47:01.464Z,10.18
2023-06-08T00:48:04.197Z,9.63
2023-06-08T00:49:08.678Z,11.93
2023-06-08T00:50:10.835Z,13.25
2023-06-08T00:51:14.008Z,15.07
2023-06-08T00:52:16.699Z,13.68
2023-06-08T00:53:20.858Z,15.80
2023-06-08T00:54:26.975Z,16.30
2023-06-08T00:55:30.763Z,10.98
2023-06-08T00:56:35.326Z,17.08
2023-06-08T00:57:39.480Z,13.50
2023-06-08T00:58:48.007Z,17.48
2023-06-08T00:59:50.789Z,17.85
2023-06-08T01:01:00.407Z,14.82
2023-06-08T01:02:05.271Z,13.93
2023-06-08T01:03:08.284Z,15.68
2023-06-08T01:04:11.055Z,18.05
2023-06-08T01:05:17.475Z,17.67
2023-06-08T01:06:22.061Z,16.77
2023-06-08T01:07:29.776Z,12.63
2023-06-08T01:08:43.805Z,14.52
2023-06-08T01:09:53.037Z,13.25
2023-06-08T01:10:59.310Z,15.02
2023-06-08T01:12:11.409Z,14.80
2023-06-08T01:13:18.561Z,10.90
2023-06-08T01:14:27.487Z,10.68
2023-06-08T01:15:32.926Z,11.63
2023-06-08T01:16:39.437Z,12.50
2023-06-08T01:17:43.854Z,12.18
2023-06-08T01:18:48.482Z,12.32
2023-06-08T01:20:06.792Z,11.73
2023-06-08T01:21:15.318Z,11.57
2023-06-08T01:22:21.817Z,9.38
2023-06-08T01:23:35.708Z,9.80
2023-06-08T01:24:41.432Z,11.13
2023-06-08T01:25:46.899Z,10.65
2023-06-08T01:26:50.536Z,10.80
2023-06-08T01:28:00.204Z,12.75
2023-06-08T01:29:02.487Z,12.77
2023-06-08T01:30:06.027Z,10.57
2023-06-08T01:31:08.015Z,10.88
2023-06-08T01:32:12.938Z,14.98
2023-06-08T01:33:17.697Z,15.68
2023-06-08T01:34:22.525Z,17.35
2023-06-08T01:35:24.381Z,19.83
2023-06-08T01:36:29.308Z,15.50
2023-06-08T01:37:36.840Z,12.95
2023-06-08T01:38:45.553Z,15.75
2023-06-08T01:39:53.257Z,13.93
2023-06-08T01:40:57.336Z,14.43
2023-06-08T01:42:01.580Z,12.18
2023-06-08T01:43:06.495Z,14.18
2023-06-08T01:44:09.870Z,16.20
2023-06-08T01:45:17.973Z,15.85
2023-06-08T01:46:21.453Z,14.45
2023-06-08T01:49:08.739Z,13.98
2023-06-08T01:50:11.660Z,15.80
2023-06-08T01:51:15.752Z,12.07
2023-06-08T01:52:17.683Z,17.60
2023-06-08T01:53:20.667Z,11.05
2023-06-08T01:54:23.007Z,13.32
2023-06-08T01:55:29.122Z,14.75
2023-06-08T01:56:31.987Z,10.75
2023-06-08T01:57:34.799Z,10.32
2023-06-08T01:58:36.799Z,12.77
2023-06-08T01:59:39.754Z,11.07
2023-06-08T02:00:41.622Z,11.88
2023-06-08T02:01:44.602Z,10.95
2023-06-08T02:02:48.085Z,10.98
2023-06-08T02:03:51.086Z,10.95
2023-06-08T02:04:53.036Z,10.38
2023-06-08T02:05:56.024Z,10.55
2023-06-08T02:06:57.884Z,11.77
2023-06-08T02:08:01.383Z,25.02
2023-06-08T02:09:03.819Z,11.73
2023-06-08T02:10:07.953Z,10.75
2023-06-08T02:11:14.069Z,8.18
2023-06-08T02:12:16.930Z,10.35
2023-06-08T02:13:18.752Z,8.88
2023-06-08T02:14:21.574Z,10.93
2023-06-08T02:15:26.409Z,10.38
2023-06-08T02:16:29.242Z,9.98
2023-06-08T02:17:34.731Z,9.85
2023-06-08T02:18:41.621Z,11.27
2023-06-08T02:19:43.519Z,9.93
2023-06-08T02:20:46.323Z,9.55
2023-06-08T02:21:48.175Z,9.52
2023-06-08T02:22:53.755Z,9.50
2023-06-08T02:23:55.630Z,10.32
2023-06-08T02:24:58.491Z,9.10
2023-06-08T02:26:00.431Z,7.68
2023-06-08T02:27:04.984Z,8.55
2023-06-08T02:28:06.991Z,8.93
2023-06-08T02:29:09.798Z,10.43
2023-06-08T02:30:13.263Z,9.63
2023-06-08T02:31:16.218Z,9.48
2023-06-08T02:32:18.079Z,7.95
2023-06-08T02:33:21.607Z,8.70
2023-06-08T02:34:24.418Z,9.73
2023-06-08T02:35:27.324Z,12.82
2023-06-08T02:36:32.896Z,11.27
2023-06-08T02:37:37.981Z,13.65
2023-06-08T02:38:40.031Z,13.20
2023-06-08T02:39:44.323Z,15.00
2023-06-08T02:40:46.270Z,43.72
2023-06-08T02:41:50.812Z,21.88
2023-06-08T02:42:54.051Z,20.33
2023-06-08T02:43:59.787Z,24.02
2023-06-08T02:45:02.720Z,28.70
2023-06-08T02:46:05.768Z,42.65
2023-06-08T02:47:08.967Z,56.20
2023-06-08T02:48:11.842Z,74.50
2023-06-08T02:49:13.775Z,31.10
2023-06-08T02:50:16.673Z,42.83
2023-06-08T02:51:20.150Z,45.83
2023-06-08T02:52:23.641Z,26.00
2023-06-08T02:53:25.535Z,27.00
2023-06-08T02:54:28.358Z,25.08
2023-06-08T02:55:36.152Z,29.50
2023-06-08T02:56:42.966Z,21.05
2023-06-08T02:57:45.012Z,20.63
2023-06-08T02:58:50.767Z,23.73
2023-06-08T02:59:53.705Z,19.25
2023-06-08T03:01:11.804Z,19.73
2023-06-08T03:02:45.270Z,23.15
2023-06-08T03:03:48.475Z,22.25
2023-06-08T03:04:54.553Z,17.30
2023-06-08T03:06:00.248Z,19.58
2023-06-08T03:07:10.539Z,19.48
2023-06-08T03:08:14.985Z,20.88
2023-06-08T03:09:18.837Z,21.35
2023-06-08T03:10:27.617Z,16.88
2023-06-08T03:11:29.656Z,18.77
2023-06-08T03:12:32.488Z,17.35
2023-06-08T03:13:36.301Z,21.05
2023-06-08T03:14:41.838Z,17.75
2023-06-08T03:15:46.135Z,22.42
2023-06-08T03:16:49.690Z,41.00
2023-06-08T03:17:53.024Z,34.35
2023-06-08T03:18:57.424Z,31.13
2023-06-08T03:20:01.065Z,45.67
2023-06-08T03:21:06.047Z,28.80
2023-06-08T03:22:08.632Z,22.27
2023-06-08T03:23:33.329Z,31.23
2023-06-08T03:24:37.574Z,29.23
2023-06-08T03:25:40.500Z,27.63
2023-06-08T03:26:44.986Z,24.42
2023-06-08T03:27:49.295Z,22.52
2023-06-08T03:28:51.716Z,21.83
2023-06-08T03:29:56.399Z,21.80
2023-06-08T03:31:02.346Z,22.50
2023-06-08T03:32:13.641Z,22.10
2023-06-08T03:33:17.016Z,23.80
2023-06-08T03:34:27.267Z,23.13
2023-06-08T03:35:34.135Z,21.13
2023-06-08T03:36:51.864Z,22.17
2023-06-08T03:37:57.714Z,22.20
2023-06-08T03:39:00.538Z,21.35
2023-06-08T03:40:02.567Z,25.08
2023-06-08T03:41:06.766Z,21.48
2023-06-08T03:42:09.386Z,21.42
2023-06-08T03:43:16.122Z,27.10
2023-06-08T03:44:18.636Z,25.05
2023-06-08T03:45:23.961Z,22.65
2023-06-08T03:46:28.597Z,22.15
2023-06-08T03:47:33.444Z,22.40
2023-06-08T03:48:36.528Z,22.33
2023-06-08T03:49:40.398Z,26.65
2023-06-08T03:50:45.309Z,25.15
2023-06-08T03:51:49.109Z,23.38
2023-06-08T03:52:51.170Z,22.70
2023-06-08T03:53:54.199Z,23.88
2023-06-08T03:54:57.189Z,22.67
2023-06-08T03:56:00.094Z,19.83
2023-06-08T03:57:02.764Z,24.42
2023-06-08T03:58:06.196Z,20.48
2023-06-08T03:59:08.283Z,23.48
2023-06-08T04:00:12.709Z,22.77
2023-06-08T04:01:18.897Z,20.65
2023-06-08T04:02:21.935Z,21.05
2023-06-08T04:03:26.098Z,20.45
2023-06-08T04:04:30.515Z,21.55
2023-06-08T04:05:33.406Z,19.02
2023-06-08T04:06:39.614Z,19.27
2023-06-08T04:07:43.177Z,18.30
2023-06-08T04:08:46.460Z,17.38
2023-06-08T04:09:48.576Z,16.35
2023-06-08T04:10:51.386Z,15.93
2023-06-08T04:11:53.447Z,14.90
2023-06-08T04:12:59.485Z,13.70
2023-06-08T04:14:01.386Z,13.52
2023-06-08T04:15:04.953Z,13.98
2023-06-08T04:16:09.862Z,13.10
2023-06-08T04:17:17.596Z,12.73
2023-06-08T04:18:19.808Z,13.93
2023-06-08T04:19:22.675Z,12.70
2023-06-08T04:20:24.526Z,13.38
2023-06-08T04:21:28.430Z,13.50
2023-06-08T04:22:36.321Z,12.75
2023-06-08T04:23:39.680Z,13.90
2023-06-08T04:24:43.542Z,14.20
2023-06-08T04:25:47.208Z,13.63
2023-06-08T04:26:49.202Z,13.77
2023-06-08T04:27:53.075Z,13.25
2023-06-08T04:28:56.678Z,13.15
2023-06-08T04:30:05.550Z,12.18
2023-06-08T04:31:09.254Z,13.73
2023-06-08T04:32:12.736Z,10.98
2023-06-08T04:33:16.223Z,11.00
2023-06-08T04:34:19.906Z,10.60
2023-06-08T04:35:22.503Z,12.25
2023-06-08T04:36:25.506Z,10.55
2023-06-08T04:37:29.239Z,9.75
2023-06-08T04:38:31.234Z,9.80
2023-06-08T04:39:35.055Z,9.00
2023-06-08T04:40:38.531Z,8.68
2023-06-08T04:41:42.503Z,9.23
2023-06-08T04:42:45.635Z,8.23
2023-06-08T04:43:50.685Z,8.68
2023-06-08T04:45:00.738Z,8.30
2023-06-08T04:46:06.240Z,7.57
2023-06-08T04:47:10.122Z,7.72
2023-06-08T04:48:13.324Z,8.93
2023-06-08T04:49:17.717Z,7.60
2023-06-08T04:50:19.693Z,8.43
2023-06-08T04:51:24.729Z,8.43
2023-06-08T04:52:31.192Z,7.95
2023-06-08T04:53:34.818Z,7.97
2023-06-08T04:54:38.353Z,8.65
2023-06-08T04:55:46.335Z,8.63
2023-06-08T04:56:49.187Z,8.43
2023-06-08T04:57:51.174Z,8.27
2023-06-08T04:58:53.958Z,8.55
2023-06-08T04:59:55.913Z,8.80
2023-06-08T05:00:59.523Z,8.35
2023-06-08T05:02:02.530Z,8.23
2023-06-08T05:03:05.618Z,9.30
2023-06-08T05:04:09.049Z,8.57
2023-06-08T05:05:14.078Z,8.68
2023-06-08T05:06:16.024Z,8.82
2023-06-08T05:07:18.860Z,9.65
2023-06-08T05:08:20.723Z,9.63
2023-06-08T05:09:23.639Z,9.05
2023-06-08T05:10:25.448Z,10.23
2023-06-08T05:11:28.272Z,9.07
2023-06-08T05:12:30.121Z,8.88
2023-06-08T05:13:32.926Z,8.50
2023-06-08T05:14:34.762Z,9.43
2023-06-08T05:15:37.555Z,10.10
2023-06-08T05:16:39.511Z,8.32
2023-06-08T05:17:42.389Z,10.82
2023-06-08T05:18:44.424Z,8.40
2023-06-08T05:19:47.252Z,8.85
2023-06-08T05:20:50.431Z,7.82
2023-06-08T05:21:53.276Z,8.60
2023-06-08T05:22:55.110Z,8.07
2023-06-08T05:23:57.875Z,9.00
2023-06-08T05:24:59.786Z,7.93
2023-06-08T05:26:02.591Z,10.67
2023-06-08T05:27:05.299Z,7.20
2023-06-08T05:28:08.179Z,8.37
2023-06-08T05:29:09.972Z,8.13
2023-06-08T05:30:13.341Z,7.63
2023-06-08T05:31:15.409Z,8.03
2023-06-08T05:32:18.219Z,7.90
2023-06-08T05:33:20.084Z,7.53
2023-06-08T05:34:22.924Z,6.97
2023-06-08T05:35:25.060Z,7.17
2023-06-08T05:36:29.199Z,6.50
2023-06-08T05:37:32.087Z,7.00
2023-06-08T05:38:33.967Z,7.20
2023-06-08T05:39:36.726Z,6.23
2023-06-08T05:40:38.634Z,7.50
2023-06-08T05:41:41.414Z,6.53
2023-06-08T05:42:43.273Z,6.50
2023-06-08T05:43:46.104Z,6.57
2023-06-08T05:44:47.986Z,7.30
2023-06-08T05:45:50.858Z,6.50
2023-06-08T05:46:52.716Z,7.70
2023-06-08T05:47:55.672Z,7.50
2023-06-08T05:48:57.595Z,6.40
2023-06-08T05:50:00.523Z,7.03
2023-06-08T05:51:02.555Z,7.23
2023-06-08T05:52:07.291Z,8.20
2023-06-08T05:53:10.179Z,6.73
2023-06-08T05:54:11.988Z,6.10
2023-06-08T05:55:14.777Z,7.03
2023-06-08T05:56:16.626Z,6.83
2023-06-08T05:57:19.434Z,6.00
2023-06-08T05:58:26.288Z,5.73
2023-06-08T05:59:33.826Z,5.60
2023-06-08T06:00:36.342Z,6.13
2023-06-08T06:01:39.175Z,5.90
2023-06-08T06:02:41.502Z,5.63
2023-06-08T06:03:44.623Z,7.97
2023-06-08T06:04:46.747Z,5.87
2023-06-08T06:05:50.281Z,5.70
2023-06-08T06:06:52.092Z,6.57
2023-06-08T06:07:56.219Z,5.83
2023-06-08T06:08:58.125Z,6.00
2023-06-08T06:10:01.004Z,5.97
2023-06-08T06:11:02.953Z,5.97
2023-06-08T06:12:08.448Z,7.40
2023-06-08T06:13:11.240Z,6.43
2023-06-08T06:14:13.079Z,6.33
2023-06-08T06:15:15.923Z,6.73
2023-06-08T06:16:19.581Z,6.00
2023-06-08T06:17:21.770Z,6.33
2023-06-08T06:18:24.719Z,6.10
2023-06-08T06:19:26.613Z,6.63
2023-06-08T06:20:30.923Z,6.90
2023-06-08T06:21:32.803Z,8.73
2023-06-08T06:22:35.673Z,5.93
2023-06-08T06:23:39.129Z,6.90
2023-06-08T06:24:42.107Z,6.17
2023-06-08T06:25:44.206Z,6.03
2023-06-08T06:26:46.989Z,6.43
2023-06-08T06:27:48.932Z,6.27
2023-06-08T06:28:51.697Z,6.83
2023-06-08T06:29:53.958Z,6.00
2023-06-08T06:30:56.799Z,5.67
2023-06-08T06:31:59.147Z,6.03
2023-06-08T06:33:02.108Z,5.80
2023-06-08T06:34:04.146Z,5.47
2023-06-08T06:35:08.081Z,6.43
2023-06-08T06:36:09.886Z,5.70
2023-06-08T06:37:12.697Z,6.67
2023-06-08T06:38:14.592Z,6.53
2023-06-08T06:39:19.916Z,6.70
2023-06-08T06:40:21.946Z,5.93
2023-06-08T06:41:24.706Z,5.03
2023-06-08T06:42:26.557Z,4.80
2023-06-08T06:43:37.332Z,4.60
2023-06-08T06:44:41.360Z,5.50
2023-06-08T06:45:45.035Z,5.67
2023-06-08T06:46:47.212Z,5.30
2023-06-08T06:47:50.076Z,5.00
2023-06-08T06:48:52.198Z,4.03
2023-06-08T06:49:55.032Z,4.53
2023-06-08T06:50:56.873Z,4.97
2023-06-08T06:51:59.677Z,4.87
2023-06-08T06:53:01.570Z,4.40
2023-06-08T06:54:04.741Z,5.60
2023-06-08T06:55:09.205Z,5.40
2023-06-08T06:56:11.255Z,4.63
2023-06-08T06:57:14.014Z,4.77
2023-06-08T06:58:16.206Z,5.73
2023-06-08T06:59:21.497Z,4.67
2023-06-08T07:00:25.002Z,4.50
2023-06-08T07:01:27.961Z,4.27
2023-06-08T07:02:29.930Z,4.50
2023-06-08T07:03:32.889Z,4.63
2023-06-08T07:04:34.741Z,5.27
2023-06-08T07:05:38.288Z,4.80
2023-06-08T07:06:42.707Z,5.27
2023-06-08T07:07:45.727Z,4.47
2023-06-08T07:08:47.571Z,4.97
2023-06-08T07:09:50.355Z,4.67
2023-06-08T07:10:53.501Z,4.87
2023-06-08T07:12:13.593Z,5.27
2023-06-08T07:13:18.258Z,4.80
2023-06-08T07:14:20.073Z,5.10
2023-06-08T07:15:22.953Z,5.57
2023-06-08T07:16:27.751Z,5.13
2023-06-08T07:17:30.863Z,5.67
2023-06-08T07:18:33.052Z,5.60
2023-06-08T07:19:36.055Z,4.50
2023-06-08T07:20:38.393Z,5.03
2023-06-08T07:21:49.397Z,4.33
2023-06-08T07:22:57.366Z,5.67
2023-06-08T07:24:25.835Z,4.93
2023-06-08T07:26:25.190Z,5.40
2023-06-08T07:26:57.444Z,4.50
2023-06-08T07:27:59.344Z,4.97
2023-06-08T07:29:04.137Z,5.10
2023-06-08T07:30:08.279Z,5.43
2023-06-08T07:31:10.422Z,4.33
2023-06-08T07:32:13.436Z,6.73
2023-06-08T07:33:15.318Z,5.13
2023-06-08T07:34:18.170Z,4.67
2023-06-08T07:35:21.732Z,5.33
2023-06-08T07:36:24.650Z,5.03
2023-06-08T07:37:26.526Z,4.93
2023-06-08T07:38:29.404Z,6.27
2023-06-08T07:39:31.243Z,5.10
2023-06-08T07:40:34.066Z,5.43
2023-06-08T07:41:35.987Z,7.00
2023-06-08T07:42:40.122Z,5.30
2023-06-08T07:43:41.993Z,6.50
2023-06-08T07:44:44.846Z,5.40
2023-06-08T07:45:46.650Z,5.27
2023-06-08T07:46:49.506Z,5.33
2023-06-08T07:47:51.372Z,4.93
2023-06-08T07:48:54.190Z,4.80
2023-06-08T07:49:57.023Z,5.70
2023-06-08T07:50:59.918Z,4.83
2023-06-08T07:52:01.732Z,6.00
2023-06-08T07:53:04.509Z,6.80
2023-06-08T07:54:07.360Z,4.80
2023-06-08T07:55:10.045Z,4.43
2023-06-08T07:56:12.873Z,5.73
2023-06-08T07:57:15.682Z,5.17
2023-06-08T07:58:18.867Z,7.87
2023-06-08T07:59:21.779Z,7.20
2023-06-08T08:00:24.652Z,4.57
2023-06-08T08:01:28.370Z,7.73
2023-06-08T08:02:30.403Z,5.30
2023-06-08T08:03:38.657Z,7.50
2023-06-08T08:04:41.762Z,5.37
2023-06-08T08:05:44.606Z,5.27
2023-06-08T08:06:46.652Z,6.30
2023-06-08T08:07:49.458Z,5.83
2023-06-08T08:08:51.477Z,5.23
2023-06-08T08:09:54.326Z,5.20
2023-06-08T08:10:57.115Z,6.20
2023-06-08T08:11:59.924Z,6.03
2023-06-08T08:13:01.775Z,7.60
2023-06-08T08:14:10.400Z,5.07
2023-06-08T08:15:12.302Z,5.60
2023-06-08T08:16:15.472Z,6.47
2023-06-08T08:17:17.337Z,6.07
2023-06-08T08:18:20.577Z,5.73
2023-06-08T08:19:23.565Z,6.20
2023-06-08T08:20:25.468Z,6.13
2023-06-08T08:21:28.246Z,6.23
2023-06-08T08:22:30.097Z,6.70
2023-06-08T08:23:32.963Z,7.83
2023-06-08T08:24:34.840Z,6.97
2023-06-08T08:25:37.733Z,9.53
2023-06-08T08:26:41.731Z,5.63
2023-06-08T08:27:44.572Z,6.17
2023-06-08T08:28:48.201Z,5.87
2023-06-08T08:29:52.376Z,6.67
2023-06-08T08:30:55.299Z,8.90
2023-06-08T08:31:58.319Z,6.27
2023-06-08T08:33:00.277Z,7.93
2023-06-08T08:34:03.092Z,6.90
2023-06-08T08:35:06.917Z,6.73
2023-06-08T08:36:08.732Z,6.10
2023-06-08T08:37:11.512Z,6.00
2023-06-08T08:38:13.385Z,6.37
2023-06-08T08:39:16.943Z,7.13
2023-06-08T08:40:18.828Z,6.33
2023-06-08T08:41:22.553Z,6.43
2023-06-08T08:42:26.370Z,6.83
2023-06-08T08:43:39.586Z,6.53
2023-06-08T08:44:43.617Z,6.80
2023-06-08T08:45:47.031Z,6.87
2023-06-08T08:46:51.113Z,7.07
2023-06-08T08:47:54.644Z,7.63
2023-06-08T08:48:59.324Z,7.37
2023-06-08T08:50:07.628Z,8.13
2023-06-08T08:51:14.467Z,7.80
2023-06-08T08:52:20.418Z,7.93
2023-06-08T08:53:28.569Z,6.90
2023-06-08T08:54:34.916Z,8.77
2023-06-08T08:55:37.760Z,7.33
2023-06-08T08:56:40.724Z,7.90
2023-06-08T08:57:42.881Z,7.20
2023-06-08T08:58:46.157Z,7.93
2023-06-08T08:59:48.177Z,7.27
2023-06-08T09:00:53.110Z,7.53
2023-06-08T09:01:55.045Z,10.33
2023-06-08T09:02:57.958Z,8.53
2023-06-08T09:03:59.893Z,8.47
2023-06-08T09:05:04.961Z,8.00
2023-06-08T09:06:06.850Z,7.73
2023-06-08T09:07:09.627Z,8.50
2023-06-08T09:08:11.944Z,8.83
2023-06-08T09:09:14.732Z,9.67
2023-06-08T09:10:19.172Z,7.73
2023-06-08T09:11:22.396Z,8.77
2023-06-08T09:12:24.594Z,8.30
2023-06-08T09:13:27.497Z,7.17
2023-06-08T09:14:30.258Z,8.63
2023-06-08T09:15:35.131Z,7.73
2023-06-08T09:16:44.443Z,8.33
2023-06-08T09:17:50.228Z,8.50
2023-06-08T09:19:07.762Z,8.20
2023-06-08T09:20:11.450Z,7.60
2023-06-08T09:21:24.063Z,8.93
2023-06-08T09:22:29.313Z,7.40
2023-06-08T09:23:33.810Z,8.23
2023-06-08T09:24:37.066Z,7.93
2023-06-08T09:25:39.331Z,9.13
2023-06-08T09:26:47.133Z,8.17
2023-06-08T09:27:49.096Z,6.97
2023-06-08T09:28:51.896Z,7.10
2023-06-08T09:29:55.302Z,7.60
2023-06-08T09:30:59.273Z,7.63
2023-06-08T09:32:02.738Z,9.73
2023-06-08T09:33:20.435Z,7.00
2023-06-08T09:34:22.853Z,7.22
2023-06-08T09:35:26.068Z,7.55
2023-06-08T09:36:28.110Z,7.40
2023-06-08T09:37:31.696Z,7.15
2023-06-08T09:38:34.989Z,7.18
2023-06-08T09:39:41.101Z,6.55
2023-06-08T09:40:43.976Z,7.07
2023-06-08T09:41:57.741Z,7.50
2023-06-08T09:42:59.609Z,6.78
2023-06-08T09:44:02.789Z,6.97
2023-06-08T09:45:09.208Z,7.35
2023-06-08T09:46:17.308Z,7.38
2023-06-08T09:47:26.625Z,6.75
2023-06-08T09:48:28.837Z,6.82
2023-06-08T09:49:31.864Z,7.22
2023-06-08T09:50:33.710Z,7.05
2023-06-08T09:51:37.693Z,7.35
2023-06-08T09:52:41.899Z,8.32
2023-06-08T09:53:44.646Z,7.65
2023-06-08T09:54:48.260Z,7.50
2023-06-08T09:55:51.287Z,6.15
2023-06-08T09:56:55.999Z,9.73
2023-06-08T09:57:58.899Z,6.80
2023-06-08T09:59:06.112Z,6.95
2023-06-08T10:00:15.648Z,6.55
2023-06-08T10:01:19.297Z,6.38
2023-06-08T10:02:26.961Z,6.10
2023-06-08T10:03:31.418Z,6.40
2023-06-08T10:04:37.664Z,7.32
2023-06-08T10:05:45.035Z,6.60
2023-06-08T10:06:48.263Z,7.43
2023-06-08T10:07:54.531Z,7.18
2023-06-08T10:08:57.487Z,6.60
2023-06-08T10:10:05.556Z,5.78
2023-06-08T10:11:11.416Z,6.70
2023-06-08T10:12:14.806Z,5.82
2023-06-08T10:13:17.087Z,5.07
2023-06-08T10:14:20.063Z,6.13
2023-06-08T10:15:23.479Z,5.47
2023-06-08T10:16:26.443Z,6.07
2023-06-08T10:17:31.627Z,7.38
2023-06-08T10:18:35.584Z,6.13
2023-06-08T10:19:37.499Z,6.15
2023-06-08T10:20:40.558Z,5.97
2023-06-08T10:21:42.744Z,6.80
2023-06-08T10:22:46.358Z,5.90
2023-06-08T10:23:48.325Z,5.87
2023-06-08T10:25:08.014Z,4.80
2023-06-08T10:26:13.806Z,5.73
2023-06-08T10:27:19.260Z,5.60
2023-06-08T10:28:22.489Z,5.78
2023-06-08T10:29:28.212Z,6.20
2023-06-08T10:30:32.641Z,5.57
2023-06-08T10:31:35.716Z,5.65
2023-06-08T10:32:43.587Z,5.85
2023-06-08T10:33:45.439Z,5.50
2023-06-08T10:34:51.460Z,5.85
2023-06-08T10:36:04.215Z,6.03
2023-06-08T10:37:07.169Z,6.30
2023-06-08T10:38:10.177Z,6.10
2023-06-08T10:39:15.326Z,5.75
2023-06-08T10:40:19.641Z,6.93
2023-06-08T10:41:38.577Z,6.00
2023-06-08T10:42:52.594Z,6.83
2023-06-08T10:43:59.518Z,6.00
2023-06-08T10:45:03.937Z,6.00
2023-06-08T10:46:06.047Z,5.97
2023-06-08T10:47:09.880Z,5.60
2023-06-08T10:48:20.365Z,5.80
2023-06-08T10:49:22.329Z,6.20
2023-06-08T10:50:25.570Z,5.10
2023-06-08T10:51:27.576Z,5.73
2023-06-08T10:52:31.227Z,5.77
2023-06-08T10:53:56.454Z,5.90
2023-06-08T10:55:01.154Z,5.80
2023-06-08T10:56:03.030Z,6.23
2023-06-08T10:57:15.108Z,5.73
2023-06-08T10:58:20.231Z,7.17
2023-06-08T10:59:35.015Z,5.90
2023-06-08T11:00:45.308Z,5.20
2023-06-08T11:01:47.461Z,6.07
2023-06-08T11:02:50.668Z,5.80
2023-06-08T11:03:59.647Z,5.90
2023-06-08T11:05:03.669Z,5.90
2023-06-08T11:06:14.839Z,5.33
2023-06-08T11:07:20.911Z,6.67
2023-06-08T11:08:24.060Z,5.83
2023-06-08T11:09:25.974Z,5.73
2023-06-08T11:10:29.251Z,5.27
2023-06-08T11:11:32.647Z,6.13
2023-06-08T11:12:34.540Z,5.90
2023-06-08T11:13:37.328Z,6.90
2023-06-08T11:14:39.137Z,5.63
2023-06-08T11:15:45.148Z,5.73
2023-06-08T11:16:49.554Z,5.30
2023-06-08T11:17:56.378Z,5.90
2023-06-08T11:19:00.679Z,6.03
2023-06-08T11:20:05.320Z,6.17
2023-06-08T11:21:08.145Z,6.07
2023-06-08T11:22:10.040Z,5.63
2023-06-08T11:23:14.182Z,6.43
2023-06-08T11:24:16.578Z,6.50
2023-06-08T11:25:20.424Z,6.17
2023-06-08T11:26:23.789Z,5.90
2023-06-08T11:27:26.656Z,6.13
2023-06-08T11:28:28.831Z,6.63
2023-06-08T11:29:31.959Z,6.27
2023-06-08T11:30:34.720Z,5.73
2023-06-08T11:31:41.439Z,5.53
2023-06-08T11:32:44.665Z,5.93
2023-06-08T11:33:49.311Z,6.57
2023-06-08T11:34:54.288Z,6.13
2023-06-08T11:35:57.174Z,5.90
2023-06-08T11:36:59.194Z,5.20
2023-06-08T11:38:02.671Z,5.80
2023-06-08T11:39:04.534Z,5.63
2023-06-08T11:40:12.150Z,6.23
2023-06-08T11:41:15.560Z,6.00
2023-06-08T11:42:17.450Z,6.23
2023-06-08T11:43:22.355Z,5.90
2023-06-08T11:44:26.899Z,5.30
2023-06-08T11:45:30.284Z,5.40
2023-06-08T11:46:33.845Z,6.47
2023-06-08T11:47:36.830Z,5.67
2023-06-08T11:48:41.856Z,6.17
2023-06-08T11:49:55.316Z,6.23
2023-06-08T11:50:58.169Z,5.93
2023-06-08T11:51:59.994Z,6.10
2023-06-08T11:53:03.672Z,6.07
2023-06-08T11:54:05.687Z,6.37
2023-06-08T11:55:13.013Z,5.80
2023-06-08T11:56:14.861Z,5.73
2023-06-08T11:57:17.718Z,5.70
2023-06-08T11:58:24.437Z,5.23
2023-06-08T11:59:27.943Z,4.87
2023-06-08T12:00:32.338Z,4.60
2023-06-08T12:01:36.267Z,5.17
2023-06-08T12:02:39.270Z,5.03
2023-06-08T12:03:45.091Z,5.20
2023-06-08T12:04:47.516Z,5.27
2023-06-08T12:05:58.929Z,5.30
2023-06-08T12:07:10.559Z,5.33
2023-06-08T12:08:15.653Z,5.37
2023-06-08T12:09:18.576Z,6.70
2023-06-08T12:10:20.479Z,6.53
2023-06-08T12:11:25.856Z,7.20
2023-06-08T12:12:30.359Z,6.27
2023-06-08T12:13:33.147Z,6.50
2023-06-08T12:14:35.180Z,5.87
2023-06-08T12:15:39.256Z,6.10
2023-06-08T12:16:44.121Z,5.90
2023-06-08T12:17:47.588Z,5.93
2023-06-08T12:18:50.483Z,6.87
2023-06-08T12:19:55.605Z,6.10
2023-06-08T12:20:59.710Z,6.20
2023-06-08T12:22:02.018Z,6.80
2023-06-08T12:23:05.890Z,6.17
2023-06-08T12:24:07.949Z,7.63
2023-06-08T12:25:10.954Z,5.97
2023-06-08T12:26:14.715Z,6.27
2023-06-08T12:27:16.562Z,6.73
2023-06-08T12:28:20.112Z,5.97
2023-06-08T12:29:23.507Z,6.43
2023-06-08T12:30:25.725Z,5.30
2023-06-08T12:31:29.144Z,6.03
2023-06-08T12:32:33.281Z,6.70
2023-06-08T12:33:36.302Z,6.40
2023-06-08T12:34:38.145Z,6.90
2023-06-08T12:35:41.670Z,6.00
2023-06-08T12:36:44.880Z,6.90
2023-06-08T12:37:50.084Z,7.00
2023-06-08T12:38:52.071Z,6.20
2023-06-08T12:39:55.000Z,5.90
2023-06-08T12:40:58.881Z,6.13
2023-06-08T12:42:01.025Z,5.63
2023-06-08T12:43:03.876Z,7.57
2023-06-08T12:44:05.725Z,5.97
2023-06-08T12:45:09.673Z,6.77
2023-06-08T12:46:12.077Z,6.50
2023-06-08T12:47:15.289Z,6.27
2023-06-08T12:48:17.254Z,6.40
2023-06-08T12:49:20.061Z,7.07
2023-06-08T12:50:23.717Z,7.00
2023-06-08T12:51:26.726Z,6.23
2023-06-08T12:58:07.517Z,6.97
2023-06-08T12:59:10.113Z,5.43
2023-06-08T13:00:13.995Z,6.50
2023-06-08T13:01:15.872Z,6.53
2023-06-08T13:02:20.496Z,7.30
2023-06-08T13:03:24.317Z,6.67
2023-06-08T13:04:30.067Z,6.73
2023-06-08T13:05:33.393Z,6.43
2023-06-08T13:06:36.400Z,6.60
2023-06-08T13:07:39.011Z,5.77
2023-06-08T13:08:41.990Z,7.03
2023-06-08T13:09:43.813Z,6.87
2023-06-08T13:10:46.622Z,6.90
2023-06-08T13:11:48.642Z,6.50
2023-06-08T13:12:51.503Z,6.00
2023-06-08T13:13:54.693Z,6.00
2023-06-08T13:14:57.705Z,6.53
2023-06-08T13:16:01.181Z,6.37
2023-06-08T13:17:04.159Z,6.73
2023-06-08T13:18:08.187Z,6.57
2023-06-08T13:19:11.181Z,6.10
2023-06-08T13:20:13.879Z,5.83
2023-06-08T13:21:17.359Z,5.80
2023-06-08T13:22:19.742Z,5.80
2023-06-08T13:23:25.409Z,5.93
2023-06-08T13:24:28.378Z,6.93
2023-06-08T13:25:30.650Z,6.70
2023-06-08T13:26:33.739Z,5.60
2023-06-08T13:27:35.613Z,6.37
2023-06-08T13:28:39.469Z,6.43
2023-06-08T13:29:49.201Z,5.80
2023-06-08T13:30:52.017Z,6.23
2023-06-08T13:31:54.769Z,6.73
2023-06-08T13:33:00.749Z,6.30
2023-06-08T13:34:03.424Z,6.13
2023-06-08T13:35:06.943Z,6.13
2023-06-08T13:36:08.774Z,9.23
2023-06-08T13:37:13.173Z,6.17
2023-06-08T13:38:16.079Z,6.73
2023-06-08T13:39:18.997Z,6.10
2023-06-08T13:40:21.471Z,6.50
2023-06-08T13:41:24.271Z,6.57
2023-06-08T13:42:26.328Z,6.80
2023-06-08T13:43:29.710Z,6.20
2023-06-08T13:44:32.777Z,5.60
2023-06-08T13:45:37.311Z,7.03
2023-06-08T13:46:40.483Z,6.90
2023-06-08T13:47:43.457Z,7.03
2023-06-08T13:48:45.323Z,6.77
2023-06-08T13:49:48.155Z,6.77
2023-06-08T13:50:49.955Z,6.20
2023-06-08T13:51:53.592Z,5.87
2023-06-08T13:52:58.070Z,6.43
2023-06-08T13:54:04.015Z,6.40
2023-06-08T13:55:06.762Z,6.17
2023-06-08T13:56:10.380Z,5.77
2023-06-08T13:57:13.176Z,6.10
2023-06-08T13:58:15.197Z,6.17
2023-06-08T13:59:18.092Z,5.70
2023-06-08T14:00:20.599Z,5.67
2023-06-08T14:01:24.761Z,6.80
2023-06-08T14:02:26.749Z,5.20
2023-06-08T14:03:29.622Z,6.00
2023-06-08T14:04:31.586Z,5.27
2023-06-08T14:05:34.461Z,5.17
2023-06-08T14:06:36.709Z,5.07
2023-06-08T14:07:41.915Z,5.20
2023-06-08T14:08:48.575Z,5.67
2023-06-08T14:09:50.709Z,5.00
2023-06-08T14:10:53.978Z,5.10
2023-06-08T14:11:56.823Z,5.03